Cody, WY

11:38 PM MDT on September 30, 2014 (GMT -0600)
South Big Horn County | Change Station
CLOSE
Current Station
Airport
Location: Greybull,
Elevation: 3934 ft
Nearby Weather Stations

Elev 3934 ft 44.52 °N, 108.08 °W | Updated 45 minutes ago

Overcast
Overcast
53 °F
Feels Like 53 °F
N
15
Wind Variable Wind from NW
Gusts 20 mph

Today
High -- | Low -- °F
--% Chance of Precip.
Yesterday
High -- | Low -- °F
Precip. -- in
7:12 AM 6:58 PM
Waxing Crescent, 44% visible
Pressure 29.77 in
Visibility 10.0 miles
Clouds Few 4800 ft
Overcast 7000 ft
Dew Point 46 °F
Humidity 77%
Rainfall 0.02 in
Snow Depth 0 in , 0 in , 0 in
UV 0 out of 12
Pollen 3.90 out of 12
Air Quality Not available.
Flu Activity Not available.
METAR KGEY 010453Z AUTO 31013G17KT 10SM -RA FEW048 OVC070 12/08 A2980 RMK AO2 SLP080 P0002 T01170078

More Conditions Fewer Conditions

Pressure 29.77 in
Visibility 10.0 miles
Clouds Few 4800 ft
Overcast 7000 ft
Dew Point 46 °F
Humidity 77%
Rainfall 0.02 in
Snow Depth 0 in , 0 in , 0 in
UV 0 out of 12
Pollen 3.90 out of 12
Air Quality Not available.
Flu Activity Not available.
METAR KGEY 010453Z AUTO 31013G17KT 10SM -RA FEW048 OVC070 12/08 A2980 RMK AO2 SLP080 P0002 T01170078

More Conditions Fewer Conditions

10-Day Weather Forecast

Almanac

Astronomy

Sep. 30, 2014 Rise Set
Actual Time 7:12 AM MDT 6:58 PM MDT
Civil Twilight 6:43 AM MDT 7:27 PM MDT
Nautical Twilight 6:10 AM MDT 8:01 PM MDT
Astronomical Twilight 5:35 AM MDT 8:35 PM MDT
Moon 1:34 PM MDT (9/30) 11:21 PM MDT (9/30)
Length of Visible Light 12h 43m
Length of Day
11h 45m
Tomorrow will be 3m 3s shorter.
Waxing Crescent, 44% of the Moon is Illuminated
Oct 1
Waxing Crescent
Oct 1
First Quarter
Oct 8
Full
Oct 15
Last Quarter
Oct 23
New

Yesterday's Extremes

State Highs State Lows

Community

WunderPhotos

Upload Photos

1,757,868 photos uploaded!

Nearby

Snow Depth

Station Depth Elevation
Kelley R.S. 0 in 8180 ft
Crow Creek 0 in 8330 ft
South Brush Creek 0 in 8440 ft
East Rim Divide 0 in 7930 ft
New Fork Lake 0 in 8340 ft

Earthquake Activity

City Distance Mag. Time & Date
No recent earthquake activity has been reported nearby.
Minimum magnitude displayed is 2.5.

Coastal Water Temperatures

Place Temperature
No Stations Reporting

Nearby Weather Stations